Tuckerton, New Jersey
Current Conditions -  °F | °C
As of 7:54 PM on Monday 26 Jan 2015 (Local Time) from KACY Reporting Station
Haze Haze  
Wind Chill: 20°   Ceiling: 1100
Heat Index: 32°   Visibility: 5mi
Dew Point: 30°   Wind: 20mph
Humidity: 92%   Direction: 20°NNE
Pressure: 29.65"   Gusts: 25mph
Location:  39.6°N, 74.34°W
Report Text: KACY 270054Z 02017G22KT 5SM BR OVC011 00/M01 A2965 RMK AO2 PK WND 04028/0035 CIG 007V015 SLP042 T00001011
Loading
Personal Weather Stations






























Interactive Weather Map New forecast layout! Learn more

10-Day Weather Forecast

Advertisements
Track Severe Weather on mobile